Asahi, Japan

7:34 AM JST on February 25, 2017 (GMT +0900)
Asahikawa | | Change Station

Elev 692 ft 43.67 °N, 142.45 °E | Updated 34 minutes ago

Snow
Snow
18 °F
Feels Like 6 °F
N
10
Wind Variable Wind from SSE

Today
High -- | Low -- °F
--% Chance of Precip.
Yesterday
High -- | Low -- °F
Precip. -- in
Pressure 29.80 in
Visibility 5.0 miles
Clouds Few 1000 ft
Scattered Clouds 2000 ft
Windchill 6 °F
Dew Point 14 °F
Humidity 86%
Rainfall 0.00 in
Snow Depth Not available.
6:13 AM 5:12 PM
Waning Crescent, 3% visible
METAR RJEC 242200Z 16009KT 8000 -SHSN FEW010 SCT020 M08/M10 Q1009
Pressure 29.80 in
Visibility 5.0 miles
Clouds Few 1000 ft
Scattered Clouds 2000 ft
Windchill 6 °F
Dew Point 14 °F
Humidity 86%
Rainfall 0.00 in
Snow Depth Not available.
6:13 AM 5:12 PM
Waning Crescent, 3% visible
METAR RJEC 242200Z 16009KT 8000 -SHSN FEW010 SCT020 M08/M10 Q1009

Get Your Daily Forecast Email!

Thanks for signing up!

Be on the lookout for a verification email in your inbox.

You'll start receiving the daily forecast at 8 AM.

×

10-Day Weather Forecast

Heavy Snow conditions possible.
No radar image for this location.
×

Almanac

Astronomy

Feb. 25, 2017 Rise Set
Actual Time
Civil Twilight
Nautical Twilight
Astronomical Twilight
Moon
Length of Visible Light
Length of Day
Tomorrow will be .
, % of the Moon is Illuminated

Today's Extremes

Country Highs Country Lows

Community

WunderPhotos

Upload Photos

1,962,540 photos uploaded!

WunderBlog® & News

Nearby

Air Quality

  Air Quality AQ Index Pollutant
Not available.

Snow Depth

Station Depth Elevation

Earthquake Activity

City Distance Mag. Time & Date
Minimum magnitude displayed is 2.5.

Coastal Water Temperatures

Place Temperature

Stations

Nearby Weather Stations

Station Location Temp. Windchill Dew Point Humidity Wind Precip. Elev Updated Type